URKK 252230Z 23003MPS CAVOK 11/10 Q1020 R23L/290060 NOSIG RMK QFE762
QNH:(hPa/inHg/mmHg)1020 / 30.12 / 765
QFE:(hPa/inHg/mmHg)1016 / 29.99 / 762
Temperature11
Dew Point10
Visibility> 10000
WeatherCAVOK
Cloud Cover
Transition Altitude4000 ft.
Transition LevelFL50
SQUAWK